createdAt,value
2023-06-19T00:00:17.206Z,1.67
2023-06-19T00:01:17.215Z,1.66
2023-06-19T00:02:17.349Z,1.63
2023-06-19T00:03:17.327Z,1.67
2023-06-19T00:04:17.452Z,1.62
2023-06-19T00:05:17.389Z,1.68
2023-06-19T00:06:17.525Z,1.66
2023-06-19T00:07:17.436Z,1.64
2023-06-19T00:08:17.591Z,1.64
2023-06-19T00:09:17.641Z,1.70
2023-06-19T00:10:17.602Z,1.68
2023-06-19T00:11:17.619Z,1.64
2023-06-19T00:12:17.732Z,1.66
2023-06-19T00:13:17.664Z,1.62
2023-06-19T00:14:17.759Z,1.65
2023-06-19T00:15:17.745Z,1.67
2023-06-19T00:16:17.819Z,1.67
2023-06-19T00:17:17.956Z,1.66
2023-06-19T00:18:17.883Z,1.69
2023-06-19T00:19:17.910Z,1.65
2023-06-19T00:20:17.935Z,1.67
2023-06-19T00:21:18.090Z,1.68
2023-06-19T00:22:18.049Z,1.65
2023-06-19T00:23:18.358Z,1.67
2023-06-19T00:24:18.267Z,1.66
2023-06-19T00:25:18.188Z,1.65
2023-06-19T00:26:18.252Z,1.67
2023-06-19T00:27:18.274Z,1.62
2023-06-19T00:28:18.399Z,1.64
2023-06-19T00:29:18.367Z,1.65
2023-06-19T00:30:18.470Z,1.67
2023-06-19T00:31:18.511Z,1.70
2023-06-19T00:32:18.515Z,1.68
2023-06-19T00:33:18.567Z,1.64
2023-06-19T00:34:18.625Z,1.64
2023-06-19T00:35:18.662Z,1.65
2023-06-19T00:36:18.725Z,1.63
2023-06-19T00:37:18.704Z,1.65
2023-06-19T00:38:18.740Z,1.65
2023-06-19T00:39:18.753Z,1.64
2023-06-19T00:40:18.786Z,1.66
2023-06-19T00:41:18.860Z,1.68
2023-06-19T00:42:18.829Z,1.69
2023-06-19T00:43:18.893Z,1.68
2023-06-19T00:44:18.907Z,1.66
2023-06-19T00:45:18.929Z,1.70
2023-06-19T00:46:18.999Z,1.65
2023-06-19T00:47:19.012Z,1.68
2023-06-19T00:48:19.007Z,1.67
2023-06-19T00:49:19.020Z,1.67
2023-06-19T00:50:19.051Z,1.70
2023-06-19T00:51:19.080Z,1.63
2023-06-19T00:52:19.068Z,1.63
2023-06-19T00:53:19.180Z,1.70
2023-06-19T00:54:19.193Z,1.66
2023-06-19T00:55:19.259Z,1.66
2023-06-19T00:56:19.275Z,1.72
2023-06-19T00:57:19.276Z,1.71
2023-06-19T00:58:19.239Z,1.67
2023-06-19T00:59:19.237Z,1.68
2023-06-19T01:00:19.389Z,1.69
2023-06-19T01:01:19.316Z,1.67
2023-06-19T01:02:19.435Z,1.66
2023-06-19T01:03:19.364Z,1.71
2023-06-19T01:04:19.507Z,1.68
2023-06-19T01:05:19.750Z,1.70
2023-06-19T01:06:19.462Z,1.70
2023-06-19T01:07:19.464Z,1.69
2023-06-19T01:08:19.494Z,1.72
2023-06-19T01:09:19.546Z,1.65
2023-06-19T01:10:19.569Z,1.66
2023-06-19T01:11:26.693Z,1.70
2023-06-19T01:12:20.589Z,1.70
2023-06-19T01:13:19.566Z,1.71
2023-06-19T01:14:19.522Z,1.66
2023-06-19T01:15:19.572Z,1.71
2023-06-19T01:16:19.616Z,1.73
2023-06-19T01:17:19.521Z,1.68
2023-06-19T01:18:19.520Z,1.69
2023-06-19T01:19:19.542Z,1.70
2023-06-19T01:20:19.531Z,1.67
2023-06-19T01:21:19.547Z,1.75
2023-06-19T01:22:19.534Z,1.66
2023-06-19T01:23:19.566Z,1.67
2023-06-19T01:24:19.511Z,1.70
2023-06-19T01:25:20.294Z,1.68
2023-06-19T01:26:19.543Z,1.71
2023-06-19T01:27:19.504Z,1.69
2023-06-19T01:28:19.460Z,1.73
2023-06-19T01:29:19.491Z,1.69
2023-06-19T01:30:19.444Z,1.68
2023-06-19T01:31:19.425Z,1.72
2023-06-19T01:32:19.417Z,1.63
2023-06-19T01:33:19.435Z,1.72
2023-06-19T01:34:19.448Z,1.76
2023-06-19T01:35:19.442Z,1.71
2023-06-19T01:36:19.453Z,1.74
2023-06-19T01:37:19.483Z,1.70
2023-06-19T01:38:19.426Z,1.70
2023-06-19T01:39:19.487Z,1.66
2023-06-19T01:40:19.434Z,1.65
2023-06-19T01:41:19.438Z,1.70
2023-06-19T01:42:19.457Z,1.69
2023-06-19T01:43:19.446Z,1.70
2023-06-19T01:44:19.474Z,1.69
2023-06-19T01:45:19.473Z,1.68
2023-06-19T01:46:19.496Z,1.68
2023-06-19T01:47:19.439Z,1.66
2023-06-19T01:48:19.462Z,1.75
2023-06-19T01:49:19.443Z,1.73
2023-06-19T01:50:19.445Z,1.72
2023-06-19T01:51:19.417Z,1.66
2023-06-19T01:52:19.443Z,1.71
2023-06-19T01:53:19.409Z,1.75
2023-06-19T01:54:19.451Z,1.76
2023-06-19T01:55:19.428Z,1.66
2023-06-19T01:56:19.465Z,1.76
2023-06-19T01:57:19.408Z,1.68
2023-06-19T01:58:19.481Z,1.68
2023-06-19T01:59:19.403Z,1.68
2023-06-19T02:00:19.429Z,1.72
2023-06-19T02:01:19.421Z,1.71
2023-06-19T02:02:19.441Z,1.67
2023-06-19T02:03:19.509Z,1.67
2023-06-19T02:04:19.398Z,1.66
2023-06-19T02:05:19.387Z,1.68
2023-06-19T02:06:19.448Z,1.70
2023-06-19T02:07:19.478Z,1.71
2023-06-19T02:08:19.427Z,1.70
2023-06-19T02:09:19.406Z,1.73
2023-06-19T02:10:19.441Z,1.74
2023-06-19T02:11:19.430Z,1.78
2023-06-19T02:12:19.427Z,1.77
2023-06-19T02:13:19.467Z,1.73
2023-06-19T02:14:19.434Z,1.73
2023-06-19T02:15:19.408Z,1.73
2023-06-19T02:16:19.466Z,1.74
2023-06-19T02:17:19.472Z,1.68
2023-06-19T02:18:19.430Z,1.76
2023-06-19T02:19:19.384Z,1.63
2023-06-19T02:20:19.456Z,1.73
2023-06-19T02:21:19.741Z,1.76
2023-06-19T02:22:19.576Z,1.77
2023-06-19T02:23:19.461Z,1.80
2023-06-19T02:24:19.500Z,1.75
2023-06-19T02:25:19.445Z,1.77
2023-06-19T02:26:19.435Z,1.77
2023-06-19T02:27:19.442Z,1.71
2023-06-19T02:28:19.449Z,1.72
2023-06-19T02:29:19.449Z,1.77
2023-06-19T02:30:19.507Z,1.78
2023-06-19T02:31:19.513Z,1.76
2023-06-19T02:32:19.514Z,1.79
2023-06-19T02:33:19.521Z,1.80
2023-06-19T02:34:19.525Z,1.76
2023-06-19T02:35:19.540Z,1.75
2023-06-19T02:36:19.544Z,1.72
2023-06-19T02:37:19.555Z,1.69
2023-06-19T02:38:19.568Z,1.76
2023-06-19T02:39:19.539Z,1.70
2023-06-19T02:40:19.580Z,1.75
2023-06-19T02:41:19.580Z,1.78
2023-06-19T02:42:19.536Z,1.78
2023-06-19T02:43:19.558Z,1.76
2023-06-19T02:44:19.558Z,1.75
2023-06-19T02:45:19.561Z,1.76
2023-06-19T02:46:19.636Z,1.71
2023-06-19T02:47:19.585Z,1.77
2023-06-19T02:48:19.577Z,1.75
2023-06-19T02:49:19.641Z,1.75
2023-06-19T02:50:19.587Z,1.75
2023-06-19T02:51:19.646Z,1.85
2023-06-19T02:52:19.676Z,1.79
2023-06-19T02:53:19.649Z,1.78
2023-06-19T02:54:19.681Z,1.80
2023-06-19T02:55:19.682Z,1.81
2023-06-19T02:56:19.698Z,1.78
2023-06-19T02:57:19.706Z,1.80
2023-06-19T02:58:19.689Z,1.72
2023-06-19T02:59:19.714Z,1.80
2023-06-19T03:00:19.761Z,1.75
2023-06-19T03:01:19.814Z,1.80
2023-06-19T03:02:19.860Z,1.81
2023-06-19T03:03:19.868Z,1.80
2023-06-19T03:04:19.790Z,1.78
2023-06-19T03:05:19.799Z,1.77
2023-06-19T03:06:19.795Z,1.78
2023-06-19T03:07:19.816Z,1.74
2023-06-19T03:08:19.872Z,1.80
2023-06-19T03:09:19.871Z,1.78
2023-06-19T03:10:19.893Z,1.81
2023-06-19T03:11:19.894Z,1.74
2023-06-19T03:12:19.892Z,1.81
2023-06-19T03:13:19.909Z,1.73
2023-06-19T03:14:19.907Z,1.83
2023-06-19T03:15:19.912Z,1.78
2023-06-19T03:16:20.055Z,1.78
2023-06-19T03:17:19.972Z,1.80
2023-06-19T03:18:20.040Z,1.83
2023-06-19T03:19:20.066Z,1.83
2023-06-19T03:20:20.001Z,1.81
2023-06-19T03:21:20.061Z,1.82
2023-06-19T03:22:20.075Z,1.86
2023-06-19T03:23:20.095Z,1.77
2023-06-19T03:24:20.107Z,1.79
2023-06-19T03:25:20.087Z,1.82
2023-06-19T03:26:20.153Z,1.87
2023-06-19T03:27:20.113Z,1.82
2023-06-19T03:28:20.192Z,1.81
2023-06-19T03:29:20.192Z,1.83
2023-06-19T03:30:20.200Z,1.81
2023-06-19T03:31:20.188Z,1.84
2023-06-19T03:32:20.332Z,1.84
2023-06-19T03:33:20.272Z,1.82
2023-06-19T03:34:20.313Z,1.83
2023-06-19T03:35:20.250Z,1.82
2023-06-19T03:36:20.293Z,1.83
2023-06-19T03:37:20.339Z,1.80
2023-06-19T03:38:20.295Z,1.85
2023-06-19T03:39:20.335Z,1.79
2023-06-19T03:40:20.334Z,1.85
2023-06-19T03:41:20.633Z,1.83
2023-06-19T03:42:20.371Z,1.83
2023-06-19T03:43:20.375Z,1.76
2023-06-19T03:44:20.428Z,1.83
2023-06-19T03:45:20.384Z,1.84
2023-06-19T03:46:20.477Z,1.79
2023-06-19T03:47:20.484Z,1.85
2023-06-19T03:48:20.447Z,1.84
2023-06-19T03:49:20.458Z,1.80
2023-06-19T03:50:22.731Z,1.82
2023-06-19T03:51:20.469Z,1.89
2023-06-19T03:52:20.484Z,1.87
2023-06-19T03:53:20.444Z,1.89
2023-06-19T03:54:20.661Z,1.85
2023-06-19T03:55:20.450Z,1.84
2023-06-19T03:56:20.449Z,1.85
2023-06-19T03:57:20.416Z,1.84
2023-06-19T03:58:20.424Z,1.83
2023-06-19T03:59:20.431Z,1.85
2023-06-19T04:00:20.431Z,1.83
2023-06-19T04:01:20.487Z,1.87
2023-06-19T04:02:20.395Z,1.84
2023-06-19T04:03:20.578Z,1.71
2023-06-19T04:04:20.874Z,1.66
2023-06-19T04:05:20.414Z,1.56
2023-06-19T04:06:20.370Z,1.48
2023-06-19T04:07:20.378Z,1.42
2023-06-19T04:08:20.401Z,1.40
2023-06-19T04:09:20.394Z,1.37
2023-06-19T04:10:20.347Z,1.26
2023-06-19T04:11:20.368Z,1.20
2023-06-19T04:12:20.359Z,1.13
2023-06-19T04:13:20.373Z,1.07
2023-06-19T04:14:20.367Z,1.02
2023-06-19T04:15:20.336Z,0.98
2023-06-19T04:16:20.441Z,0.91
2023-06-19T04:17:20.459Z,0.88
2023-06-19T04:18:20.366Z,0.84
2023-06-19T04:19:20.384Z,0.81
2023-06-19T04:20:20.350Z,0.81
2023-06-19T04:21:20.268Z,0.76
2023-06-19T04:22:20.341Z,0.71
2023-06-19T04:23:20.283Z,0.71
2023-06-19T04:24:20.383Z,0.68
2023-06-19T04:25:20.304Z,0.67
2023-06-19T04:26:20.259Z,0.63
2023-06-19T04:27:20.256Z,0.62
2023-06-19T04:28:20.274Z,0.60
2023-06-19T04:29:20.220Z,0.60
2023-06-19T04:30:20.220Z,0.57
2023-06-19T04:31:20.238Z,0.56
2023-06-19T04:32:20.303Z,0.58
2023-06-19T04:33:20.270Z,0.60
2023-06-19T04:34:20.179Z,0.62
2023-06-19T04:35:20.372Z,0.61
2023-06-19T04:36:20.222Z,0.63
2023-06-19T04:37:20.183Z,0.67
2023-06-19T04:38:20.182Z,0.67
2023-06-19T04:39:20.205Z,0.67
2023-06-19T04:40:20.193Z,0.67
2023-06-19T04:41:20.136Z,0.67
2023-06-19T04:42:20.138Z,0.68
2023-06-19T04:43:20.159Z,0.68
2023-06-19T04:44:20.162Z,0.67
2023-06-19T04:45:20.128Z,0.69
2023-06-19T04:46:20.179Z,0.69
2023-06-19T04:47:20.217Z,0.69
2023-06-19T04:48:20.194Z,0.69
2023-06-19T04:49:24.010Z,0.71
2023-06-19T04:50:20.210Z,0.72
2023-06-19T04:51:20.153Z,0.72
2023-06-19T04:52:20.164Z,0.72
2023-06-19T04:53:20.178Z,0.73
2023-06-19T04:54:20.181Z,0.74
2023-06-19T04:55:20.201Z,0.76
2023-06-19T04:56:20.134Z,0.77
2023-06-19T04:57:20.134Z,0.77
2023-06-19T04:58:20.145Z,0.79
2023-06-19T04:59:20.148Z,0.82
2023-06-19T05:00:20.189Z,0.80
2023-06-19T05:01:20.155Z,0.80
2023-06-19T05:02:20.201Z,0.82
2023-06-19T05:03:20.142Z,0.86
2023-06-19T05:04:20.140Z,0.86
2023-06-19T05:05:22.498Z,0.84
2023-06-19T05:06:20.105Z,0.84
2023-06-19T05:07:20.110Z,0.84
2023-06-19T05:08:20.085Z,0.84
2023-06-19T05:09:20.090Z,0.85
2023-06-19T05:10:20.093Z,0.88
2023-06-19T05:11:20.037Z,0.86
2023-06-19T05:12:20.063Z,0.85
2023-06-19T05:13:20.044Z,0.88
2023-06-19T05:14:20.065Z,0.87
2023-06-19T05:15:20.064Z,0.87
2023-06-19T05:16:20.073Z,0.86
2023-06-19T05:17:20.097Z,0.88
2023-06-19T05:18:20.069Z,0.87
2023-06-19T05:19:20.084Z,0.86
2023-06-19T05:20:20.001Z,0.86
2023-06-19T05:21:20.014Z,0.87
2023-06-19T05:22:20.036Z,0.86
2023-06-19T05:23:20.020Z,0.89
2023-06-19T05:24:20.018Z,0.91
2023-06-19T05:25:20.004Z,0.88
2023-06-19T05:26:20.039Z,0.87
2023-06-19T05:27:20.003Z,0.89
2023-06-19T05:28:19.957Z,0.87
2023-06-19T05:29:20.042Z,0.90
2023-06-19T05:30:19.955Z,0.89
2023-06-19T05:31:19.976Z,0.90
2023-06-19T05:32:19.961Z,0.89
2023-06-19T05:33:19.945Z,0.89
2023-06-19T05:34:19.930Z,0.92
2023-06-19T05:35:19.888Z,0.90
2023-06-19T05:36:20.884Z,0.89
2023-06-19T05:37:19.904Z,0.91
2023-06-19T05:38:19.913Z,0.91
2023-06-19T05:39:19.934Z,0.91
2023-06-19T05:40:19.892Z,0.93
2023-06-19T05:41:19.892Z,0.93
2023-06-19T05:42:19.913Z,0.92
2023-06-19T05:43:19.940Z,0.93
2023-06-19T05:44:19.925Z,0.92
2023-06-19T05:45:19.913Z,0.95
2023-06-19T05:46:19.920Z,0.92
2023-06-19T05:47:19.899Z,0.91
2023-06-19T05:48:19.888Z,0.91
2023-06-19T05:49:19.873Z,0.93
2023-06-19T05:50:20.009Z,0.92
2023-06-19T05:51:20.038Z,0.92
2023-06-19T05:52:20.051Z,0.93
2023-06-19T05:53:20.121Z,0.92
2023-06-19T05:54:20.108Z,0.92
2023-06-19T05:55:20.237Z,0.94
2023-06-19T05:56:20.201Z,0.92
2023-06-19T05:57:20.171Z,0.94
2023-06-19T05:58:20.223Z,0.93
2023-06-19T05:59:20.218Z,0.94
2023-06-19T06:00:20.318Z,0.94
2023-06-19T06:01:20.372Z,0.97
2023-06-19T06:02:20.444Z,0.97
2023-06-19T06:03:20.336Z,0.97
2023-06-19T06:04:20.338Z,0.95
2023-06-19T06:05:20.429Z,0.96
2023-06-19T06:06:20.454Z,0.96
2023-06-19T06:07:20.511Z,0.97
2023-06-19T06:08:20.504Z,0.99
2023-06-19T06:09:20.504Z,0.98
2023-06-19T06:10:20.557Z,0.98
2023-06-19T06:11:20.610Z,0.97
2023-06-19T06:12:20.702Z,0.99
2023-06-19T06:13:20.639Z,0.98
2023-06-19T06:14:20.721Z,0.98
2023-06-19T06:15:20.701Z,0.98
2023-06-19T06:16:20.800Z,0.98
2023-06-19T06:17:20.727Z,0.99
2023-06-19T06:18:20.745Z,0.99
2023-06-19T06:19:20.801Z,0.96
2023-06-19T06:20:20.802Z,1.01
2023-06-19T06:21:20.820Z,1.01
2023-06-19T06:22:20.880Z,0.99
2023-06-19T06:23:20.925Z,0.99
2023-06-19T06:24:21.085Z,0.99
2023-06-19T06:25:21.012Z,1.00
2023-06-19T06:26:21.037Z,0.99
2023-06-19T06:27:21.065Z,1.00
2023-06-19T06:28:21.072Z,1.01
2023-06-19T06:29:21.098Z,0.97
2023-06-19T06:30:21.174Z,1.01
2023-06-19T06:31:21.150Z,1.00
2023-06-19T06:32:21.236Z,1.01
2023-06-19T06:33:21.260Z,1.02
2023-06-19T06:34:21.391Z,1.00
2023-06-19T06:35:21.328Z,1.00
2023-06-19T06:36:33.738Z,0.98
2023-06-19T06:37:22.530Z,0.99
2023-06-19T06:38:21.390Z,0.99
2023-06-19T06:39:21.392Z,0.99
2023-06-19T06:40:21.594Z,1.01
2023-06-19T06:41:21.350Z,1.00
2023-06-19T06:42:21.382Z,1.01
2023-06-19T06:43:21.327Z,0.99
2023-06-19T06:44:21.314Z,1.00
2023-06-19T06:45:21.329Z,1.01
2023-06-19T06:46:21.461Z,1.01
2023-06-19T06:47:21.322Z,1.00
2023-06-19T06:48:21.294Z,1.01
2023-06-19T06:49:21.324Z,1.01
2023-06-19T06:50:21.640Z,0.99
2023-06-19T06:51:21.360Z,0.99
2023-06-19T06:52:21.386Z,1.00
2023-06-19T06:53:21.434Z,0.99
2023-06-19T06:54:21.439Z,0.98
2023-06-19T06:55:21.545Z,0.99
2023-06-19T06:56:21.502Z,0.97
2023-06-19T06:57:21.534Z,0.98
2023-06-19T06:58:21.545Z,0.96
2023-06-19T06:59:21.671Z,0.98
2023-06-19T07:00:21.688Z,0.97
2023-06-19T07:01:21.620Z,0.98
2023-06-19T07:02:21.705Z,0.96
2023-06-19T07:03:21.758Z,0.96
2023-06-19T07:04:21.625Z,0.97
2023-06-19T07:05:21.667Z,0.97
2023-06-19T07:06:21.708Z,0.95
2023-06-19T07:07:21.791Z,0.94
2023-06-19T07:08:21.726Z,0.95
2023-06-19T07:09:21.725Z,0.96
2023-06-19T07:10:22.099Z,0.98
2023-06-19T07:11:21.671Z,0.97
2023-06-19T07:12:21.682Z,0.94
2023-06-19T07:13:21.674Z,0.98
2023-06-19T07:14:21.691Z,0.97
2023-06-19T07:15:21.690Z,0.97
2023-06-19T07:16:21.752Z,0.98
2023-06-19T07:17:21.750Z,0.97
2023-06-19T07:18:21.716Z,0.96
2023-06-19T07:19:21.702Z,0.96
2023-06-19T07:20:22.002Z,0.96
2023-06-19T07:21:21.739Z,0.95
2023-06-19T07:22:21.693Z,0.99
2023-06-19T07:23:21.690Z,0.96
2023-06-19T07:24:22.489Z,0.98
2023-06-19T07:25:21.660Z,0.97
2023-06-19T07:26:21.682Z,0.96
2023-06-19T07:27:21.730Z,0.96
2023-06-19T07:28:21.731Z,0.97
2023-06-19T07:29:21.677Z,0.96
2023-06-19T07:30:21.787Z,0.98
2023-06-19T07:31:21.693Z,0.97
2023-06-19T07:32:21.739Z,0.98
2023-06-19T07:33:21.732Z,0.95
2023-06-19T07:34:21.753Z,0.96
2023-06-19T07:35:21.658Z,0.98
2023-06-19T07:36:21.669Z,0.97
2023-06-19T07:37:21.745Z,0.98
2023-06-19T07:38:21.687Z,0.95
2023-06-19T07:39:21.686Z,0.97
2023-06-19T07:40:21.807Z,0.98
2023-06-19T07:41:21.709Z,0.97
2023-06-19T07:42:21.781Z,0.98
2023-06-19T07:43:21.779Z,0.96
2023-06-19T07:44:21.788Z,0.96
2023-06-19T07:45:21.728Z,0.97
2023-06-19T07:46:21.841Z,0.98
2023-06-19T07:47:21.980Z,0.96
2023-06-19T07:48:23.052Z,0.97
2023-06-19T07:49:21.871Z,0.96
2023-06-19T07:50:23.042Z,0.97
2023-06-19T07:51:21.824Z,1.00
2023-06-19T07:52:21.829Z,0.97
2023-06-19T07:53:21.853Z,0.95
2023-06-19T07:54:21.948Z,0.97
2023-06-19T07:55:21.808Z,0.96
2023-06-19T07:56:21.821Z,0.96
2023-06-19T07:57:21.815Z,0.97
2023-06-19T07:58:21.817Z,0.95
2023-06-19T07:59:21.790Z,0.93
2023-06-19T08:00:21.917Z,0.95
2023-06-19T08:01:21.735Z,0.96
2023-06-19T08:02:21.823Z,0.95
2023-06-19T08:03:21.835Z,0.95
2023-06-19T08:04:21.771Z,0.93
2023-06-19T08:05:21.797Z,0.95
2023-06-19T08:06:21.739Z,0.93
2023-06-19T08:07:21.756Z,0.94
2023-06-19T08:08:21.742Z,0.97
2023-06-19T08:09:21.845Z,0.95
2023-06-19T08:10:21.731Z,0.95
2023-06-19T08:11:21.722Z,0.96
2023-06-19T08:12:21.715Z,0.93
2023-06-19T08:13:21.745Z,0.94
2023-06-19T08:14:21.678Z,0.92
2023-06-19T08:15:21.734Z,0.94
2023-06-19T08:16:21.707Z,0.93
2023-06-19T08:17:21.722Z,0.92
2023-06-19T08:18:21.656Z,0.91
2023-06-19T08:19:21.662Z,0.92
2023-06-19T08:20:21.898Z,0.89
2023-06-19T08:21:21.612Z,0.89
2023-06-19T08:22:21.623Z,0.89
2023-06-19T08:23:21.654Z,0.88
2023-06-19T08:24:21.709Z,0.87
2023-06-19T08:25:21.612Z,0.87
2023-06-19T08:26:21.623Z,0.87
2023-06-19T08:27:21.609Z,0.86
2023-06-19T08:28:21.608Z,0.87
2023-06-19T08:29:21.623Z,0.87
2023-06-19T08:30:21.669Z,0.86
2023-06-19T08:31:21.582Z,0.86
2023-06-19T08:32:21.593Z,0.86
2023-06-19T08:33:21.549Z,0.85
2023-06-19T08:34:21.605Z,0.84
2023-06-19T08:35:21.563Z,0.86
2023-06-19T08:36:21.570Z,0.85
2023-06-19T08:37:21.581Z,0.85
2023-06-19T08:38:21.518Z,0.83
2023-06-19T08:39:21.528Z,0.83
2023-06-19T08:40:21.766Z,0.84
2023-06-19T08:41:21.512Z,0.84
2023-06-19T08:42:21.503Z,0.82
2023-06-19T08:43:21.512Z,0.83
2023-06-19T08:44:21.477Z,0.82
2023-06-19T08:45:21.487Z,0.82
2023-06-19T08:46:21.558Z,0.82
2023-06-19T08:47:21.525Z,0.82
2023-06-19T08:48:21.515Z,0.83
2023-06-19T08:49:21.460Z,0.80
2023-06-19T08:50:21.567Z,0.81
2023-06-19T08:51:21.785Z,0.82
2023-06-19T08:52:21.466Z,0.82
2023-06-19T08:53:22.300Z,0.83
2023-06-19T08:54:21.459Z,0.82
2023-06-19T08:55:21.465Z,0.82
2023-06-19T08:56:21.404Z,0.82
2023-06-19T08:57:21.513Z,0.81
2023-06-19T08:58:21.474Z,0.81
2023-06-19T08:59:21.525Z,0.83
2023-06-19T09:00:23.102Z,0.83
2023-06-19T09:01:21.535Z,0.87
2023-06-19T09:02:21.699Z,0.86
2023-06-19T09:03:21.683Z,0.85
2023-06-19T09:04:21.594Z,0.85
2023-06-19T09:05:21.510Z,0.83
2023-06-19T09:06:21.695Z,0.84
2023-06-19T09:07:21.537Z,0.84
2023-06-19T09:08:21.541Z,0.86
2023-06-19T09:09:21.558Z,0.84
2023-06-19T09:10:21.667Z,0.87
2023-06-19T09:11:21.589Z,0.84
2023-06-19T09:12:21.511Z,0.86
2023-06-19T09:13:21.473Z,0.84
2023-06-19T09:14:21.505Z,0.83
2023-06-19T09:15:21.498Z,0.90
2023-06-19T09:16:21.490Z,0.87
2023-06-19T09:17:21.473Z,0.84
2023-06-19T09:18:21.464Z,0.84
2023-06-19T09:19:21.489Z,0.84
2023-06-19T09:20:21.492Z,0.84
2023-06-19T09:21:21.466Z,0.82
2023-06-19T09:22:21.443Z,0.82
2023-06-19T09:23:21.401Z,0.88
2023-06-19T09:24:21.423Z,0.82
2023-06-19T09:25:21.390Z,0.82
2023-06-19T09:26:21.426Z,0.84
2023-06-19T09:27:21.493Z,0.83
2023-06-19T09:28:21.387Z,0.83
2023-06-19T09:29:21.853Z,0.81
2023-06-19T09:30:21.504Z,0.78
2023-06-19T09:31:21.429Z,0.84
2023-06-19T09:32:21.528Z,0.82
2023-06-19T09:33:21.450Z,0.82
2023-06-19T09:34:21.343Z,0.82
2023-06-19T09:35:21.379Z,0.79
2023-06-19T09:36:21.526Z,0.79
2023-06-19T09:37:21.406Z,0.79
2023-06-19T09:38:21.491Z,0.82
2023-06-19T09:39:21.540Z,0.84
2023-06-19T09:40:21.823Z,0.82
2023-06-19T09:41:21.605Z,0.86
2023-06-19T09:42:21.678Z,0.81
2023-06-19T09:43:21.789Z,0.81
2023-06-19T09:44:21.789Z,0.80
2023-06-19T09:45:21.828Z,0.81
2023-06-19T09:46:21.895Z,0.85
2023-06-19T09:47:22.064Z,0.80
2023-06-19T09:48:21.984Z,0.79
2023-06-19T09:49:22.119Z,0.81
2023-06-19T09:50:22.152Z,0.78
2023-06-19T09:51:22.150Z,0.84
2023-06-19T09:52:22.178Z,0.80
2023-06-19T09:53:22.203Z,0.80
2023-06-19T09:54:22.261Z,0.82
2023-06-19T09:55:22.302Z,0.78
2023-06-19T09:56:22.375Z,0.81
2023-06-19T09:57:22.442Z,0.80
2023-06-19T09:58:22.504Z,0.82
2023-06-19T09:59:22.544Z,0.82
2023-06-19T10:00:22.902Z,0.83
2023-06-19T10:01:22.620Z,0.84
2023-06-19T10:02:22.677Z,0.79
2023-06-19T10:03:22.771Z,0.83
2023-06-19T10:04:22.706Z,0.79
2023-06-19T10:05:22.777Z,0.81
2023-06-19T10:06:22.764Z,0.79
2023-06-19T10:07:22.801Z,0.79
2023-06-19T10:08:22.827Z,0.80
2023-06-19T10:09:22.876Z,0.80
2023-06-19T10:10:23.122Z,0.81
2023-06-19T10:11:22.930Z,0.78
2023-06-19T10:12:23.009Z,0.77
2023-06-19T10:13:22.985Z,0.78
2023-06-19T10:14:23.047Z,0.76
2023-06-19T10:15:23.047Z,0.79
2023-06-19T10:16:23.161Z,0.79
2023-06-19T10:17:23.141Z,0.77
2023-06-19T10:18:23.135Z,0.82
2023-06-19T10:19:23.160Z,0.79
2023-06-19T10:20:23.411Z,0.81
2023-06-19T10:21:23.253Z,0.78
2023-06-19T10:22:23.210Z,0.80
2023-06-19T10:23:23.274Z,0.80
2023-06-19T10:24:23.217Z,0.82
2023-06-19T10:25:23.398Z,0.81
2023-06-19T10:26:23.202Z,0.86
2023-06-19T10:27:23.227Z,0.84
2023-06-19T10:28:23.256Z,0.78
2023-06-19T10:29:23.228Z,0.78
2023-06-19T10:30:23.400Z,0.84
2023-06-19T10:31:23.222Z,0.86
2023-06-19T10:32:23.286Z,0.86
2023-06-19T10:33:23.186Z,0.85
2023-06-19T10:34:23.189Z,0.84
2023-06-19T10:35:23.195Z,0.80
2023-06-19T10:36:23.280Z,0.80
2023-06-19T10:37:23.223Z,0.82
2023-06-19T10:38:23.173Z,0.79
2023-06-19T10:39:23.196Z,0.82
2023-06-19T10:40:23.388Z,0.78
2023-06-19T10:41:23.206Z,0.78
2023-06-19T10:42:23.225Z,0.81
2023-06-19T10:43:23.204Z,0.82
2023-06-19T10:44:23.163Z,0.84
2023-06-19T10:45:23.162Z,0.79
2023-06-19T10:46:23.222Z,0.77
2023-06-19T10:47:23.244Z,0.78
2023-06-19T10:48:23.138Z,0.75
2023-06-19T10:49:23.182Z,0.77
2023-06-19T10:50:23.433Z,0.77
2023-06-19T10:51:23.159Z,0.81
2023-06-19T10:52:23.176Z,0.76
2023-06-19T10:53:23.176Z,0.82
2023-06-19T10:54:23.191Z,0.82
2023-06-19T10:55:23.202Z,0.86
2023-06-19T10:56:23.189Z,0.85
2023-06-19T10:57:23.186Z,0.85
2023-06-19T10:58:23.204Z,0.87
2023-06-19T10:59:23.211Z,0.86
2023-06-19T11:00:23.393Z,0.84
2023-06-19T11:01:23.180Z,0.85
2023-06-19T11:02:23.295Z,0.83
2023-06-19T11:03:23.320Z,0.86
2023-06-19T11:04:23.181Z,0.86
2023-06-19T11:05:23.202Z,0.85
2023-06-19T11:06:23.197Z,0.86
2023-06-19T11:07:23.223Z,0.85
2023-06-19T11:08:23.217Z,0.85
2023-06-19T11:09:23.215Z,0.84
2023-06-19T11:10:23.428Z,0.85
2023-06-19T11:11:23.236Z,0.82
2023-06-19T11:12:23.241Z,0.82
2023-06-19T11:13:23.254Z,0.80
2023-06-19T11:14:23.214Z,0.84
2023-06-19T11:15:23.273Z,0.85
2023-06-19T11:16:23.336Z,0.83
2023-06-19T11:17:23.412Z,0.80
2023-06-19T11:18:23.282Z,0.79
2023-06-19T11:19:23.279Z,0.79
2023-06-19T11:20:23.483Z,0.75
2023-06-19T11:21:23.312Z,0.75
2023-06-19T11:22:23.305Z,0.75
2023-06-19T11:23:23.336Z,0.75
2023-06-19T11:24:23.400Z,0.78
2023-06-19T11:25:23.381Z,0.74
2023-06-19T11:26:23.477Z,0.77
2023-06-19T11:27:23.391Z,0.75
2023-06-19T11:28:23.465Z,0.74
2023-06-19T11:29:23.405Z,0.75
2023-06-19T11:30:23.568Z,0.77
2023-06-19T11:31:23.418Z,0.72
2023-06-19T11:32:23.462Z,0.75
2023-06-19T11:33:23.573Z,0.76
2023-06-19T11:34:24.889Z,0.71
2023-06-19T11:35:23.462Z,0.75
2023-06-19T11:36:23.490Z,0.69
2023-06-19T11:37:23.450Z,0.72
2023-06-19T11:38:23.458Z,0.70
2023-06-19T11:39:23.467Z,0.69
2023-06-19T11:40:23.651Z,0.67
2023-06-19T11:41:23.485Z,0.72
2023-06-19T11:42:23.506Z,0.69
2023-06-19T11:43:23.511Z,0.70
2023-06-19T11:44:23.518Z,0.65
2023-06-19T11:45:23.916Z,0.70
2023-06-19T11:46:23.717Z,0.69
2023-06-19T11:47:23.658Z,0.66
2023-06-19T11:48:23.586Z,0.67
2023-06-19T11:49:23.586Z,0.64
2023-06-19T11:50:25.632Z,0.66
2023-06-19T11:51:23.596Z,0.66
2023-06-19T11:52:23.655Z,0.65
2023-06-19T11:53:23.634Z,0.65
2023-06-19T11:54:24.046Z,0.68
2023-06-19T11:55:23.677Z,0.67
2023-06-19T11:56:23.723Z,0.65
2023-06-19T11:57:23.707Z,0.64
2023-06-19T11:58:23.703Z,0.64
2023-06-19T11:59:23.745Z,0.65
2023-06-19T12:00:24.013Z,0.61
2023-06-19T12:01:23.724Z,0.63
2023-06-19T12:02:23.976Z,0.66
2023-06-19T12:03:23.965Z,0.66
2023-06-19T12:04:23.997Z,0.68
2023-06-19T12:05:23.808Z,0.65
2023-06-19T12:06:23.813Z,0.67
2023-06-19T12:07:23.852Z,0.65
2023-06-19T12:08:23.874Z,0.63
2023-06-19T12:09:23.873Z,0.64
2023-06-19T12:10:24.089Z,0.66
2023-06-19T12:11:23.904Z,0.62
2023-06-19T12:12:23.957Z,0.63
2023-06-19T12:13:23.950Z,0.62
2023-06-19T12:14:24.017Z,0.64
2023-06-19T12:15:24.028Z,0.63
2023-06-19T12:16:24.078Z,0.66
2023-06-19T12:17:24.096Z,0.65
2023-06-19T12:18:24.106Z,0.64
2023-06-19T12:19:24.115Z,0.61
2023-06-19T12:20:24.326Z,0.61
2023-06-19T12:21:35.566Z,0.64
2023-06-19T12:22:25.157Z,0.64
2023-06-19T12:23:24.210Z,0.65
2023-06-19T12:24:24.209Z,0.66
2023-06-19T12:25:24.156Z,0.65
2023-06-19T12:26:24.109Z,0.68
2023-06-19T12:27:24.122Z,0.67
2023-06-19T12:28:24.107Z,0.68
2023-06-19T12:29:24.085Z,0.68
2023-06-19T12:30:24.323Z,0.68
2023-06-19T12:31:24.152Z,0.69
2023-06-19T12:32:24.140Z,0.67
2023-06-19T12:33:24.056Z,0.66
2023-06-19T12:34:31.228Z,0.64
2023-06-19T12:35:25.027Z,0.64
2023-06-19T12:36:24.035Z,0.63
2023-06-19T12:37:24.024Z,0.65
2023-06-19T12:38:24.080Z,0.66
2023-06-19T12:39:24.022Z,0.69
2023-06-19T12:40:24.317Z,0.65
2023-06-19T12:41:23.996Z,0.66
2023-06-19T12:42:24.001Z,0.67
2023-06-19T12:43:24.007Z,0.69
2023-06-19T12:44:23.966Z,0.64
2023-06-19T12:45:23.957Z,0.70
2023-06-19T12:46:24.014Z,0.69
2023-06-19T12:47:24.104Z,0.67
2023-06-19T12:48:24.013Z,0.68
2023-06-19T12:49:23.941Z,0.67
2023-06-19T12:50:24.202Z,0.67
2023-06-19T12:51:24.021Z,0.70
2023-06-19T12:52:23.973Z,0.69
2023-06-19T12:53:23.921Z,0.67
2023-06-19T12:54:23.939Z,0.67
2023-06-19T12:55:23.925Z,0.67
2023-06-19T12:56:23.952Z,0.69
2023-06-19T12:57:24.020Z,0.66
2023-06-19T12:58:23.952Z,0.68
2023-06-19T12:59:24.044Z,0.65
2023-06-19T13:00:24.289Z,0.67
2023-06-19T13:01:24.113Z,0.68
2023-06-19T13:02:24.327Z,0.66
2023-06-19T13:03:24.354Z,0.66
2023-06-19T13:04:24.159Z,0.68
2023-06-19T13:05:24.155Z,0.66
2023-06-19T13:06:24.200Z,0.66
2023-06-19T13:07:24.198Z,0.64
2023-06-19T13:08:24.281Z,0.65
2023-06-19T13:09:24.282Z,0.65
2023-06-19T13:10:24.503Z,0.63
2023-06-19T13:11:24.365Z,0.60
2023-06-19T13:12:24.548Z,0.65
2023-06-19T13:13:24.429Z,0.64
2023-06-19T13:14:24.435Z,0.64
2023-06-19T13:15:24.415Z,0.67
2023-06-19T13:16:33.592Z,0.65
2023-06-19T13:17:25.576Z,0.65
2023-06-19T13:18:24.463Z,0.62